CheckWX is a tool to help pilots better visualize weather data.  It is not intended as a substitute for an official pre-flight weather briefing.

04:37:15 UTC

VTSG METAR
Krabi Airport
Krabi, Thailand
Current

37 mins ago

VTSG 170400Z 25006KT 220V280 9999 SCT020 SCT100 31/25 Q1011 NOSIG
Observed
Sep-17 @ 04:00 UTC
Wind
  • 250° at 6 KTS
Visibility
10,000+ meters
Flight Rules
VFR
Cloud Levels
  • Scattered at 2,000' AGL
  • Scattered at 10,000' AGL
Temperature
31°C / 88°F
Dewpoint
25°C / 77°F
Heat Index
38°C / 100°F
Humidity
70%
Altimeter
29.85" Hg
Pressure
1010.92 hPa
Previous

2 hours ago

VTSG 170300Z VRB02KT 9999 SCT020 31/26 Q1012 NOSIG
Observed
Sep-17 @ 03:00 UTC
Wind
  • Variable at 2 KTS
Visibility
10,000+ meters
Flight Rules
VFR
Cloud Levels
  • Scattered at 2,000' AGL
Temperature
31°C / 88°F
Dewpoint
26°C / 79°F
Heat Index
39°C / 103°F
Humidity
75%
Altimeter
29.88" Hg
Pressure
1011.92 hPa
Previous

3 hours ago

VTSG 170200Z 11005KT 070V140 9999 FEW020 BKN100 27/27 Q1011 NOSIG
Observed
Sep-17 @ 02:00 UTC
Wind
  • 110° at 5 KTS
Visibility
10,000+ meters
Flight Rules
VFR
Cloud Levels
  • Few at 2,000' AGL
  • Broken at 10,000' AGL
Temperature
27°C / 81°F
Dewpoint
27°C / 81°F
Heat Index
33°C / 91°F
Humidity
100%
Altimeter
29.85" Hg
Pressure
1010.92 hPa